createdAt,value
2019-03-23T00:00:40.494Z,3.00
2019-03-23T00:01:47.943Z,2.30
2019-03-23T00:02:51.257Z,2.45
2019-03-23T00:03:54.524Z,2.52
2019-03-23T00:04:57.719Z,2.17
2019-03-23T00:06:00.966Z,2.35
2019-03-23T00:07:04.265Z,2.47
2019-03-23T00:08:07.707Z,2.90
2019-03-23T00:09:11.081Z,2.62
2019-03-23T00:10:14.570Z,2.80
2019-03-23T00:11:18.192Z,2.90
2019-03-23T00:12:21.416Z,2.47
2019-03-23T00:13:24.776Z,2.92
2019-03-23T00:14:28.111Z,4.08
2019-03-23T00:15:31.376Z,3.10
2019-03-23T00:16:34.573Z,3.70
2019-03-23T00:17:37.961Z,3.52
2019-03-23T00:18:41.314Z,2.80
2019-03-23T00:19:44.620Z,2.95
2019-03-23T00:20:47.862Z,3.50
2019-03-23T00:21:51.319Z,4.15
2019-03-23T00:22:54.666Z,3.62
2019-03-23T00:23:57.884Z,3.60
2019-03-23T00:25:01.415Z,3.62
2019-03-23T00:26:04.743Z,3.72
2019-03-23T00:27:08.351Z,3.50
2019-03-23T00:28:11.620Z,3.65
2019-03-23T00:29:15.015Z,4.05
2019-03-23T00:30:18.465Z,3.20
2019-03-23T00:31:21.641Z,3.55
2019-03-23T00:32:25.105Z,4.08
2019-03-23T00:33:28.700Z,4.25
2019-03-23T00:34:32.074Z,3.77
2019-03-23T00:35:35.431Z,3.90
2019-03-23T00:36:41.681Z,4.05
2019-03-23T00:37:44.017Z,3.83
2019-03-23T00:38:47.330Z,3.77
2019-03-23T00:39:50.459Z,3.35
2019-03-23T00:40:53.622Z,3.27
2019-03-23T00:41:57.054Z,3.50
2019-03-23T00:43:00.310Z,3.70
2019-03-23T00:44:03.494Z,3.85
2019-03-23T00:45:07.261Z,4.00
2019-03-23T00:46:12.310Z,3.42
2019-03-23T00:47:15.600Z,3.60
2019-03-23T00:48:19.098Z,3.30
2019-03-23T00:49:22.564Z,3.70
2019-03-23T00:50:25.832Z,3.58
2019-03-23T00:51:29.185Z,3.27
2019-03-23T00:52:32.460Z,3.17
2019-03-23T00:53:35.691Z,3.62
2019-03-23T00:54:39.046Z,3.35
2019-03-23T00:55:42.308Z,3.60
2019-03-23T00:56:45.805Z,4.35
2019-03-23T00:57:49.318Z,4.33
2019-03-23T00:58:52.771Z,4.08
2019-03-23T00:59:56.112Z,3.58
2019-03-23T01:00:59.448Z,4.10
2019-03-23T01:02:02.865Z,4.00
2019-03-23T01:03:06.321Z,4.15
2019-03-23T01:04:09.583Z,4.45
2019-03-23T01:05:13.395Z,4.28
2019-03-23T01:06:16.926Z,4.45
2019-03-23T01:07:20.660Z,3.65
2019-03-23T01:08:25.037Z,3.83
2019-03-23T01:09:29.419Z,3.90
2019-03-23T01:10:32.895Z,4.08
2019-03-23T01:11:37.860Z,4.05
2019-03-23T01:12:42.163Z,3.70
2019-03-23T01:13:46.157Z,4.30
2019-03-23T01:14:50.196Z,3.60
2019-03-23T01:15:53.751Z,4.08
2019-03-23T01:16:58.010Z,3.90
2019-03-23T01:18:01.368Z,3.30
2019-03-23T01:19:05.232Z,3.70
2019-03-23T01:20:09.514Z,3.42
2019-03-23T01:21:13.159Z,3.85
2019-03-23T01:22:17.291Z,3.58
2019-03-23T01:23:21.201Z,3.55
2019-03-23T01:24:24.754Z,3.50
2019-03-23T01:25:28.463Z,4.03
2019-03-23T01:26:31.782Z,3.40
2019-03-23T01:27:35.417Z,3.27
2019-03-23T01:28:39.807Z,3.85
2019-03-23T01:29:43.968Z,2.90
2019-03-23T01:30:47.923Z,3.83
2019-03-23T01:31:52.755Z,3.47
2019-03-23T01:32:57.197Z,3.25
2019-03-23T01:34:00.746Z,3.40
2019-03-23T01:35:05.285Z,3.40
2019-03-23T01:36:08.621Z,3.33
2019-03-23T01:37:11.855Z,3.33
2019-03-23T01:38:15.105Z,3.27
2019-03-23T01:39:18.475Z,3.25
2019-03-23T01:40:21.690Z,2.75
2019-03-23T01:41:27.627Z,3.33
2019-03-23T01:42:31.225Z,3.15
2019-03-23T01:43:34.561Z,3.10
2019-03-23T01:44:37.732Z,3.22
2019-03-23T01:45:41.000Z,3.17
2019-03-23T01:46:44.414Z,3.20
2019-03-23T01:47:47.784Z,2.75
2019-03-23T01:48:51.031Z,2.83
2019-03-23T01:49:54.422Z,3.45
2019-03-23T01:50:57.850Z,2.80
2019-03-23T01:52:01.074Z,2.80
2019-03-23T01:53:04.441Z,4.12
2019-03-23T01:54:07.592Z,5.62
2019-03-23T01:55:11.133Z,4.55
2019-03-23T01:56:14.417Z,4.20
2019-03-23T01:57:17.778Z,4.53
2019-03-23T01:58:21.019Z,4.08
2019-03-23T01:59:24.232Z,4.15
2019-03-23T02:00:28.377Z,3.72
2019-03-23T02:01:31.904Z,3.52
2019-03-23T02:02:35.321Z,2.87
2019-03-23T02:03:38.716Z,2.42
2019-03-23T02:04:42.518Z,3.00
2019-03-23T02:05:45.849Z,3.12
2019-03-23T02:06:49.050Z,2.60
2019-03-23T02:07:52.242Z,2.75
2019-03-23T02:08:55.477Z,3.10
2019-03-23T02:09:58.930Z,2.60
2019-03-23T02:11:02.331Z,2.77
2019-03-23T02:12:05.473Z,3.12
2019-03-23T02:13:09.185Z,2.62
2019-03-23T02:14:12.891Z,2.62
2019-03-23T02:15:16.183Z,2.98
2019-03-23T02:16:19.721Z,2.33
2019-03-23T02:17:23.192Z,2.75
2019-03-23T02:18:26.632Z,2.70
2019-03-23T02:19:30.013Z,2.75
2019-03-23T02:20:33.271Z,2.52
2019-03-23T02:21:37.918Z,2.58
2019-03-23T02:22:41.662Z,2.67
2019-03-23T02:23:45.030Z,2.33
2019-03-23T02:24:48.454Z,2.60
2019-03-23T02:25:51.713Z,2.42
2019-03-23T02:26:55.222Z,2.75
2019-03-23T02:27:58.505Z,2.42
2019-03-23T02:29:01.804Z,2.58
2019-03-23T02:30:05.591Z,2.75
2019-03-23T02:31:08.744Z,2.90
2019-03-23T02:32:11.891Z,2.47
2019-03-23T02:33:15.276Z,2.47
2019-03-23T02:34:18.577Z,2.40
2019-03-23T02:35:22.107Z,2.75
2019-03-23T02:36:26.640Z,2.83
2019-03-23T02:37:29.891Z,2.70
2019-03-23T02:38:33.393Z,2.50
2019-03-23T02:39:36.863Z,2.85
2019-03-23T02:40:40.322Z,2.40
2019-03-23T02:41:43.794Z,2.45
2019-03-23T02:42:47.195Z,2.60
2019-03-23T02:43:51.301Z,2.80
2019-03-23T02:44:54.933Z,2.22
2019-03-23T02:45:58.771Z,2.15
2019-03-23T02:47:02.030Z,2.83
2019-03-23T02:48:05.358Z,2.00
2019-03-23T02:49:08.527Z,1.92
2019-03-23T02:50:11.965Z,2.08
2019-03-23T02:51:15.415Z,2.30
2019-03-23T02:52:18.590Z,2.00
2019-03-23T02:53:21.864Z,2.22
2019-03-23T02:54:25.150Z,2.20
2019-03-23T02:55:28.519Z,2.40
2019-03-23T02:56:31.939Z,2.87
2019-03-23T02:57:35.159Z,2.30
2019-03-23T02:58:38.374Z,2.15
2019-03-23T02:59:41.972Z,2.20
2019-03-23T03:00:45.168Z,2.50
2019-03-23T03:02:07.471Z,2.77
2019-03-23T03:03:10.937Z,2.80
2019-03-23T03:04:14.122Z,2.55
2019-03-23T03:05:17.255Z,2.60
2019-03-23T03:06:20.543Z,2.60
2019-03-23T03:07:23.702Z,2.17
2019-03-23T03:08:27.067Z,2.30
2019-03-23T03:09:30.308Z,2.00
2019-03-23T03:10:40.141Z,2.75
2019-03-23T03:11:43.480Z,2.87
2019-03-23T03:12:46.699Z,2.45
2019-03-23T03:13:50.029Z,2.52
2019-03-23T03:14:53.153Z,2.35
2019-03-23T03:15:56.326Z,2.35
2019-03-23T03:16:59.483Z,2.50
2019-03-23T03:18:03.721Z,2.52
2019-03-23T03:19:07.099Z,2.55
2019-03-23T03:20:10.487Z,2.40
2019-03-23T03:21:13.630Z,2.40
2019-03-23T03:22:16.771Z,2.60
2019-03-23T03:23:20.313Z,2.65
2019-03-23T03:24:23.623Z,2.85
2019-03-23T03:25:26.806Z,2.90
2019-03-23T03:26:30.044Z,2.52
2019-03-23T03:27:33.379Z,2.70
2019-03-23T03:28:36.497Z,2.80
2019-03-23T03:29:39.729Z,2.55
2019-03-23T03:30:44.242Z,2.55
2019-03-23T03:31:47.587Z,2.42
2019-03-23T03:32:51.147Z,2.58
2019-03-23T03:33:54.590Z,2.52
2019-03-23T03:34:58.135Z,2.80
2019-03-23T03:36:01.449Z,2.52
2019-03-23T03:37:05.134Z,2.80
2019-03-23T03:38:09.586Z,2.92
2019-03-23T03:39:12.918Z,2.40
2019-03-23T03:40:16.141Z,2.33
2019-03-23T03:41:19.489Z,3.45
2019-03-23T03:42:22.831Z,2.87
2019-03-23T03:43:26.013Z,2.65
2019-03-23T03:44:29.271Z,3.00
2019-03-23T03:45:32.459Z,2.37
2019-03-23T03:46:35.720Z,3.20
2019-03-23T03:47:41.366Z,2.77
2019-03-23T03:48:45.266Z,2.80
2019-03-23T03:49:48.753Z,3.33
2019-03-23T03:50:51.923Z,3.70
2019-03-23T03:51:55.150Z,2.87
2019-03-23T03:52:58.410Z,2.92
2019-03-23T03:54:02.612Z,3.05
2019-03-23T03:55:06.974Z,2.72
2019-03-23T03:56:10.142Z,3.50
2019-03-23T03:57:13.501Z,3.17
2019-03-23T03:58:16.755Z,3.30
2019-03-23T03:59:20.003Z,3.47
2019-03-23T04:00:23.456Z,3.75
2019-03-23T04:01:26.820Z,3.12
2019-03-23T04:02:30.081Z,3.52
2019-03-23T04:03:33.319Z,3.65
2019-03-23T04:04:36.675Z,3.52
2019-03-23T04:05:39.821Z,3.40
2019-03-23T04:06:43.527Z,3.45
2019-03-23T04:07:46.891Z,4.03
2019-03-23T04:08:50.359Z,4.17
2019-03-23T04:09:53.730Z,3.77
2019-03-23T04:10:56.871Z,4.17
2019-03-23T04:12:00.265Z,4.30
2019-03-23T04:13:03.580Z,4.55
2019-03-23T04:14:07.030Z,5.30
2019-03-23T04:15:10.619Z,5.55
2019-03-23T04:16:13.966Z,5.80
2019-03-23T04:17:17.286Z,5.80
2019-03-23T04:18:22.313Z,6.42
2019-03-23T04:19:25.779Z,5.80
2019-03-23T04:20:29.246Z,6.87
2019-03-23T04:21:32.486Z,7.45
2019-03-23T04:22:35.622Z,6.62
2019-03-23T04:23:40.584Z,6.20
2019-03-23T04:25:58.632Z,6.95
2019-03-23T04:27:04.283Z,6.85
2019-03-23T04:28:07.448Z,7.72
2019-03-23T04:29:11.006Z,7.03
2019-03-23T04:30:14.166Z,7.05
2019-03-23T04:31:18.666Z,6.95
2019-03-23T04:32:22.213Z,7.60
2019-03-23T04:33:26.874Z,7.08
2019-03-23T04:34:30.261Z,7.30
2019-03-23T04:35:33.528Z,7.37
2019-03-23T04:36:37.051Z,6.85
2019-03-23T04:37:40.431Z,7.58
2019-03-23T04:38:43.750Z,8.33
2019-03-23T04:39:47.297Z,8.40
2019-03-23T04:40:50.685Z,8.50
2019-03-23T04:41:53.940Z,8.48
2019-03-23T04:42:57.213Z,8.85
2019-03-23T04:44:00.683Z,9.13
2019-03-23T04:45:05.334Z,8.50
2019-03-23T04:46:08.640Z,9.43
2019-03-23T04:47:11.973Z,7.70
2019-03-23T04:48:15.255Z,8.43
2019-03-23T04:49:18.490Z,8.83
2019-03-23T04:50:21.839Z,8.98
2019-03-23T04:51:25.252Z,8.98
2019-03-23T04:52:28.765Z,8.38
2019-03-23T04:53:32.234Z,9.05
2019-03-23T04:54:35.717Z,8.15
2019-03-23T04:55:38.826Z,7.60
2019-03-23T04:56:42.566Z,8.05
2019-03-23T04:57:45.849Z,7.22
2019-03-23T04:58:49.269Z,8.33
2019-03-23T04:59:52.556Z,8.88
2019-03-23T05:00:55.743Z,9.88
2019-03-23T05:01:59.088Z,9.28
2019-03-23T05:03:02.435Z,9.05
2019-03-23T05:04:05.666Z,9.88
2019-03-23T05:05:08.791Z,9.88
2019-03-23T05:06:12.273Z,10.25
2019-03-23T05:07:17.425Z,10.13
2019-03-23T05:08:20.681Z,10.82
2019-03-23T05:09:24.134Z,11.45
2019-03-23T05:10:27.484Z,10.93
2019-03-23T05:11:30.757Z,10.50
2019-03-23T05:12:33.928Z,11.83
2019-03-23T05:13:37.073Z,12.20
2019-03-23T05:14:40.333Z,10.80
2019-03-23T05:15:43.722Z,12.15
2019-03-23T05:16:47.339Z,13.22
2019-03-23T05:17:50.702Z,12.05
2019-03-23T05:18:54.148Z,13.08
2019-03-23T05:19:57.274Z,10.93
2019-03-23T05:21:00.734Z,12.68
2019-03-23T05:22:03.979Z,12.45
2019-03-23T05:23:07.342Z,13.50
2019-03-23T05:24:10.611Z,13.90
2019-03-23T05:25:22.484Z,12.75
2019-03-23T05:26:25.704Z,12.95
2019-03-23T05:27:29.399Z,11.95
2019-03-23T05:28:32.840Z,11.83
2019-03-23T05:29:36.008Z,13.55
2019-03-23T05:30:39.259Z,12.30
2019-03-23T05:31:42.413Z,12.85
2019-03-23T05:32:45.756Z,12.07
2019-03-23T05:33:49.135Z,12.80
2019-03-23T05:34:52.450Z,12.30
2019-03-23T05:35:55.718Z,13.62
2019-03-23T05:36:59.007Z,12.88
2019-03-23T05:38:02.643Z,11.90
2019-03-23T05:39:06.406Z,12.43
2019-03-23T05:40:17.171Z,13.75
2019-03-23T05:41:20.442Z,12.47
2019-03-23T05:42:24.015Z,12.13
2019-03-23T05:43:27.483Z,12.15
2019-03-23T05:44:30.651Z,14.18
2019-03-23T05:45:34.469Z,14.43
2019-03-23T05:46:37.831Z,15.20
2019-03-23T05:47:41.063Z,14.90
2019-03-23T05:48:44.487Z,15.65
2019-03-23T05:49:48.043Z,15.85
2019-03-23T05:50:51.303Z,15.20
2019-03-23T05:51:54.725Z,15.80
2019-03-23T05:52:58.192Z,16.48
2019-03-23T05:54:01.718Z,15.55
2019-03-23T05:55:05.098Z,16.40
2019-03-23T05:56:08.584Z,16.85
2019-03-23T05:57:12.017Z,16.52
2019-03-23T05:58:15.291Z,16.85
2019-03-23T05:59:18.751Z,17.17
2019-03-23T06:00:22.118Z,16.48
2019-03-23T06:01:25.553Z,18.05
2019-03-23T06:02:29.029Z,17.75
2019-03-23T06:03:32.319Z,16.73
2019-03-23T06:04:35.771Z,17.02
2019-03-23T06:05:39.284Z,16.30
2019-03-23T06:06:42.822Z,18.42
2019-03-23T06:07:46.128Z,19.12
2019-03-23T06:08:55.050Z,18.50
2019-03-23T06:09:54.775Z,18.60
2019-03-23T06:10:58.154Z,17.95
2019-03-23T06:12:01.587Z,18.45
2019-03-23T06:13:04.699Z,19.65
2019-03-23T06:14:10.281Z,18.87
2019-03-23T06:15:13.772Z,18.30
2019-03-23T06:16:17.961Z,18.95
2019-03-23T06:17:21.795Z,17.40
2019-03-23T06:18:25.084Z,18.42
2019-03-23T06:19:28.530Z,21.10
2019-03-23T06:20:32.013Z,17.07
2019-03-23T06:21:36.457Z,17.98
2019-03-23T06:22:39.660Z,17.73
2019-03-23T06:23:43.350Z,17.87
2019-03-23T06:24:46.580Z,19.77
2019-03-23T06:25:50.922Z,17.80
2019-03-23T06:26:54.674Z,18.52
2019-03-23T06:27:57.905Z,19.12
2019-03-23T06:29:01.063Z,18.85
2019-03-23T06:30:05.497Z,18.32
2019-03-23T06:31:08.818Z,19.85
2019-03-23T06:32:11.994Z,19.50
2019-03-23T06:33:15.082Z,21.25
2019-03-23T06:34:18.423Z,19.48
2019-03-23T06:35:21.688Z,19.07
2019-03-23T06:36:25.071Z,18.17
2019-03-23T06:37:29.568Z,20.90
2019-03-23T06:38:32.743Z,20.27
2019-03-23T06:39:36.056Z,19.27
2019-03-23T06:40:39.416Z,19.50
2019-03-23T06:41:44.278Z,19.67
2019-03-23T06:42:47.397Z,20.25
2019-03-23T06:43:50.640Z,20.15
2019-03-23T06:44:54.066Z,21.42
2019-03-23T06:45:59.212Z,19.25
2019-03-23T06:47:02.532Z,20.20
2019-03-23T06:48:06.988Z,17.92
2019-03-23T06:49:10.495Z,18.55
2019-03-23T06:50:14.356Z,18.98
2019-03-23T06:51:17.726Z,20.08
2019-03-23T06:52:21.303Z,18.62
2019-03-23T06:53:24.732Z,18.32
2019-03-23T06:54:29.014Z,21.50
2019-03-23T06:55:32.323Z,20.10
2019-03-23T06:56:35.989Z,18.50
2019-03-23T06:57:39.268Z,19.35
2019-03-23T06:58:42.689Z,20.70
2019-03-23T06:59:46.260Z,20.25
2019-03-23T07:00:49.689Z,19.25
2019-03-23T07:01:53.040Z,19.32
2019-03-23T07:02:56.528Z,21.05
2019-03-23T07:03:59.679Z,19.35
2019-03-23T07:05:03.359Z,20.17
2019-03-23T07:06:06.704Z,19.05
2019-03-23T07:07:10.060Z,19.55
2019-03-23T07:08:13.546Z,19.92
2019-03-23T07:09:16.733Z,21.90
2019-03-23T07:10:20.275Z,18.27
2019-03-23T07:11:23.639Z,20.60
2019-03-23T07:12:27.124Z,19.75
2019-03-23T07:13:30.325Z,20.97
2019-03-23T07:14:33.593Z,18.67
2019-03-23T07:15:36.975Z,18.62
2019-03-23T07:16:40.241Z,19.92
2019-03-23T07:17:43.701Z,18.23
2019-03-23T07:18:47.229Z,19.05
2019-03-23T07:19:50.499Z,18.55
2019-03-23T07:20:53.924Z,18.67
2019-03-23T07:21:57.292Z,18.32
2019-03-23T07:23:00.559Z,18.57
2019-03-23T07:24:03.796Z,16.93
2019-03-23T07:25:08.273Z,17.42
2019-03-23T07:26:11.606Z,18.60
2019-03-23T07:27:14.968Z,18.20
2019-03-23T07:28:18.124Z,18.45
2019-03-23T07:29:21.313Z,17.48
2019-03-23T07:30:24.565Z,16.82
2019-03-23T07:31:27.744Z,18.52
2019-03-23T07:32:31.106Z,18.45
2019-03-23T07:33:34.418Z,17.87
2019-03-23T07:34:37.708Z,18.20
2019-03-23T07:35:40.945Z,18.85
2019-03-23T07:36:44.406Z,17.45
2019-03-23T07:37:47.767Z,19.12
2019-03-23T07:38:51.206Z,17.25
2019-03-23T07:39:54.399Z,18.02
2019-03-23T07:40:57.829Z,18.30
2019-03-23T07:42:00.970Z,17.95
2019-03-23T07:43:04.138Z,17.82
2019-03-23T07:44:07.607Z,16.48
2019-03-23T07:45:11.125Z,17.37
2019-03-23T07:46:14.615Z,16.80
2019-03-23T07:47:17.976Z,17.12
2019-03-23T07:48:21.403Z,16.97
2019-03-23T07:49:24.829Z,17.17
2019-03-23T07:50:28.184Z,16.42
2019-03-23T07:51:31.615Z,16.32
2019-03-23T07:52:34.990Z,17.07
2019-03-23T07:53:38.476Z,17.00
2019-03-23T07:54:41.939Z,17.35
2019-03-23T07:55:45.338Z,17.05
2019-03-23T07:56:48.745Z,16.48
2019-03-23T07:57:51.930Z,15.65
2019-03-23T07:58:55.593Z,16.02
2019-03-23T07:59:58.973Z,16.17
2019-03-23T08:01:02.350Z,15.70
2019-03-23T08:02:05.621Z,17.40
2019-03-23T08:03:09.052Z,17.45
2019-03-23T08:04:12.434Z,15.50
2019-03-23T08:05:15.954Z,17.30
2019-03-23T08:06:19.288Z,17.07
2019-03-23T08:07:23.000Z,17.40
2019-03-23T08:08:26.567Z,16.37
2019-03-23T08:09:37.293Z,16.65
2019-03-23T08:10:35.039Z,16.52
2019-03-23T08:11:38.497Z,16.55
2019-03-23T08:12:41.622Z,17.60
2019-03-23T08:13:44.907Z,15.83
2019-03-23T08:14:49.160Z,16.97
2019-03-23T08:15:52.343Z,16.30
2019-03-23T08:16:55.537Z,18.17
2019-03-23T08:17:58.899Z,18.48
2019-03-23T08:19:02.325Z,17.75
2019-03-23T08:20:06.434Z,16.27
2019-03-23T08:21:09.894Z,17.23
2019-03-23T08:22:13.317Z,17.23
2019-03-23T08:23:16.761Z,18.15
2019-03-23T08:24:20.185Z,16.95
2019-03-23T08:25:23.731Z,17.10
2019-03-23T08:26:27.264Z,16.80
2019-03-23T08:27:30.630Z,18.20
2019-03-23T08:28:34.186Z,18.62
2019-03-23T08:29:37.512Z,17.77
2019-03-23T08:30:40.746Z,17.32
2019-03-23T08:31:44.433Z,19.20
2019-03-23T08:32:47.718Z,18.25
2019-03-23T08:33:52.120Z,17.40
2019-03-23T08:34:58.002Z,18.27
2019-03-23T08:36:00.731Z,18.55
2019-03-23T08:37:03.966Z,19.32
2019-03-23T08:38:07.199Z,17.70
2019-03-23T08:39:13.463Z,18.02
2019-03-23T08:40:16.819Z,18.00
2019-03-23T08:41:20.085Z,18.42
2019-03-23T08:42:23.354Z,17.42
2019-03-23T08:43:26.725Z,17.75
2019-03-23T08:44:31.662Z,17.98
2019-03-23T08:45:35.074Z,17.62
2019-03-23T08:46:38.477Z,17.77
2019-03-23T08:47:41.817Z,18.90
2019-03-23T08:48:44.996Z,17.67
2019-03-23T08:49:48.164Z,18.17
2019-03-23T08:50:51.536Z,17.95
2019-03-23T08:51:55.010Z,18.17
2019-03-23T08:52:58.235Z,20.30
2019-03-23T08:54:01.583Z,19.02
2019-03-23T08:55:06.147Z,16.50
2019-03-23T08:56:09.450Z,19.00
2019-03-23T08:57:12.718Z,18.42
2019-03-23T08:58:15.995Z,18.35
2019-03-23T08:59:19.276Z,17.48
2019-03-23T09:00:22.544Z,18.60
2019-03-23T09:01:27.091Z,20.35
2019-03-23T09:02:30.298Z,19.65
2019-03-23T09:03:33.811Z,19.77
2019-03-23T09:04:37.075Z,17.32
2019-03-23T09:05:40.594Z,18.73
2019-03-23T09:06:43.860Z,18.50
2019-03-23T09:07:47.300Z,17.92
2019-03-23T09:08:50.785Z,17.87
2019-03-23T09:09:59.123Z,18.87
2019-03-23T09:10:59.361Z,18.17
2019-03-23T09:12:02.510Z,19.27
2019-03-23T09:13:05.668Z,17.62
2019-03-23T09:14:08.932Z,18.85
2019-03-23T09:15:12.393Z,17.82
2019-03-23T09:16:15.639Z,18.90
2019-03-23T09:17:18.970Z,18.32
2019-03-23T09:18:22.675Z,18.15
2019-03-23T09:19:25.945Z,19.25
2019-03-23T09:20:29.709Z,17.30
2019-03-23T09:21:33.874Z,17.90
2019-03-23T09:22:37.373Z,17.95
2019-03-23T09:23:40.742Z,18.10
2019-03-23T09:24:44.102Z,20.00
2019-03-23T09:25:47.254Z,19.20
2019-03-23T09:26:50.729Z,19.42
2019-03-23T09:27:54.261Z,20.30
2019-03-23T09:28:57.677Z,17.75
2019-03-23T09:30:01.031Z,18.00
2019-03-23T09:31:04.497Z,19.27
2019-03-23T09:32:07.699Z,17.62
2019-03-23T09:33:11.336Z,18.65
2019-03-23T09:34:14.505Z,17.15
2019-03-23T09:35:17.970Z,18.37
2019-03-23T09:36:22.836Z,18.17
2019-03-23T09:37:26.369Z,19.20
2019-03-23T09:38:29.818Z,17.27
2019-03-23T09:39:33.053Z,18.25
2019-03-23T09:40:36.203Z,17.15
2019-03-23T09:41:39.474Z,19.80
2019-03-23T09:42:43.339Z,17.45
2019-03-23T09:43:46.778Z,18.55
2019-03-23T09:44:51.351Z,19.12
2019-03-23T09:45:54.564Z,19.00
2019-03-23T09:46:57.839Z,18.10
2019-03-23T09:48:01.328Z,18.77
2019-03-23T09:49:04.681Z,17.15
2019-03-23T09:50:08.055Z,17.77
2019-03-23T09:51:11.440Z,17.75
2019-03-23T09:52:14.765Z,19.92
2019-03-23T09:53:17.947Z,17.30
2019-03-23T09:54:21.523Z,17.62
2019-03-23T09:55:24.642Z,20.57
2019-03-23T09:56:28.027Z,19.05
2019-03-23T09:57:31.240Z,17.87
2019-03-23T09:58:34.403Z,18.80
2019-03-23T09:59:37.763Z,18.02
2019-03-23T10:00:41.089Z,17.35
2019-03-23T10:01:44.214Z,18.73
2019-03-23T10:02:47.498Z,18.12
2019-03-23T10:03:50.849Z,18.45
2019-03-23T10:04:54.110Z,16.70
2019-03-23T10:05:57.379Z,17.02
2019-03-23T10:07:00.976Z,16.95
2019-03-23T10:08:04.148Z,16.45
2019-03-23T10:09:07.530Z,15.80
2019-03-23T10:10:21.034Z,17.27
2019-03-23T10:11:16.188Z,17.37
2019-03-23T10:12:19.339Z,15.90
2019-03-23T10:13:22.552Z,17.57
2019-03-23T10:14:25.908Z,18.27
2019-03-23T10:15:30.971Z,18.70
2019-03-23T10:16:34.442Z,16.17
2019-03-23T10:17:37.615Z,15.78
2019-03-23T10:18:40.898Z,17.25
2019-03-23T10:19:44.190Z,16.35
2019-03-23T10:20:47.438Z,17.23
2019-03-23T10:21:50.696Z,15.88
2019-03-23T10:22:54.237Z,16.10
2019-03-23T10:23:57.487Z,17.65
2019-03-23T10:25:01.720Z,18.15
2019-03-23T10:26:05.504Z,16.82
2019-03-23T10:27:08.763Z,17.48
2019-03-23T10:28:13.055Z,17.92
2019-03-23T10:29:16.595Z,15.78
2019-03-23T10:30:19.985Z,17.85
2019-03-23T10:31:23.536Z,15.00
2019-03-23T10:32:28.347Z,17.75
2019-03-23T10:33:31.557Z,16.80
2019-03-23T10:34:34.799Z,15.28
2019-03-23T10:35:38.420Z,16.32
2019-03-23T10:36:41.702Z,16.95
2019-03-23T10:37:44.907Z,15.43
2019-03-23T10:38:48.435Z,17.85
2019-03-23T10:39:51.700Z,17.77
2019-03-23T10:40:55.241Z,17.70
2019-03-23T10:41:58.829Z,17.92
2019-03-23T10:43:02.056Z,18.70
2019-03-23T10:44:05.384Z,17.65
2019-03-23T10:45:09.145Z,18.25
2019-03-23T10:46:13.415Z,16.73
2019-03-23T10:47:16.920Z,17.40
2019-03-23T10:48:20.137Z,16.17
2019-03-23T10:49:23.539Z,18.75
2019-03-23T10:50:26.882Z,18.12
2019-03-23T10:51:30.064Z,17.17
2019-03-23T10:52:33.223Z,19.35
2019-03-23T10:53:36.781Z,16.65
2019-03-23T10:54:40.235Z,16.35
2019-03-23T10:55:43.433Z,18.65
2019-03-23T10:56:46.594Z,18.52
2019-03-23T10:57:49.949Z,17.37
2019-03-23T10:58:53.262Z,17.95
2019-03-23T10:59:57.746Z,19.30
2019-03-23T11:01:01.237Z,17.77
2019-03-23T11:02:04.508Z,18.98
2019-03-23T11:03:07.801Z,20.10
2019-03-23T11:04:11.048Z,17.92
2019-03-23T11:05:14.594Z,21.20
2019-03-23T11:06:17.763Z,18.23
2019-03-23T11:07:21.145Z,18.70
2019-03-23T11:08:25.495Z,19.00
2019-03-23T11:09:28.795Z,17.55
2019-03-23T11:10:41.451Z,17.60
2019-03-23T11:11:37.147Z,19.67
2019-03-23T11:12:40.408Z,19.87
2019-03-23T11:13:43.710Z,20.08
2019-03-23T11:14:47.157Z,18.50
2019-03-23T11:15:50.659Z,18.98
2019-03-23T11:16:53.914Z,19.45
2019-03-23T11:17:58.895Z,18.92
2019-03-23T11:19:02.108Z,18.73
2019-03-23T11:20:05.882Z,18.92
2019-03-23T11:21:09.067Z,18.87
2019-03-23T11:22:12.430Z,18.82
2019-03-23T11:23:15.608Z,18.10
2019-03-23T11:24:18.991Z,19.57
2019-03-23T11:25:22.270Z,19.62
2019-03-23T11:26:25.653Z,18.75
2019-03-23T11:27:29.514Z,18.70
2019-03-23T11:28:33.045Z,17.52
2019-03-23T11:29:40.338Z,20.30
2019-03-23T11:32:34.082Z,17.80
2019-03-23T11:33:37.481Z,18.98
2019-03-23T11:34:40.754Z,19.02
2019-03-23T11:35:44.067Z,19.27
2019-03-23T11:36:47.295Z,18.17
2019-03-23T11:37:52.205Z,19.40
2019-03-23T11:38:56.691Z,18.20
2019-03-23T11:40:01.063Z,18.25
2019-03-23T11:41:04.487Z,18.15
2019-03-23T11:42:07.668Z,18.30
2019-03-23T11:43:10.928Z,19.00
2019-03-23T11:44:15.289Z,18.87
2019-03-23T11:45:18.482Z,19.45
2019-03-23T11:46:22.959Z,19.12
2019-03-23T11:47:26.077Z,17.40
2019-03-23T11:48:29.619Z,18.80
2019-03-23T11:49:32.958Z,19.32
2019-03-23T11:50:36.515Z,16.73
2019-03-23T11:51:40.882Z,18.30
2019-03-23T11:52:44.226Z,20.70
2019-03-23T11:53:47.581Z,18.55
2019-03-23T11:54:51.122Z,16.90
2019-03-23T11:55:54.457Z,19.32
2019-03-23T11:56:57.721Z,18.87
2019-03-23T11:58:00.971Z,19.87
2019-03-23T11:59:04.115Z,19.17
2019-03-23T12:00:08.406Z,18.92
2019-03-23T12:01:11.653Z,19.40
2019-03-23T12:02:36.148Z,19.67
2019-03-23T12:03:41.884Z,19.17
2019-03-23T12:04:45.360Z,16.40
2019-03-23T12:05:48.835Z,18.75
2019-03-23T12:06:52.035Z,18.98
2019-03-23T12:07:55.268Z,18.27
2019-03-23T12:09:10.970Z,19.73
2019-03-23T12:10:14.595Z,18.52
2019-03-23T12:11:18.092Z,17.65
2019-03-23T12:12:21.318Z,18.65
2019-03-23T12:13:24.751Z,19.48
2019-03-23T12:14:28.160Z,17.70
2019-03-23T12:15:31.616Z,18.25
2019-03-23T12:16:35.195Z,16.80
2019-03-23T12:17:38.460Z,18.75
2019-03-23T12:18:41.745Z,19.40
2019-03-23T12:19:45.391Z,17.67
2019-03-23T12:20:48.829Z,18.25
2019-03-23T12:21:51.987Z,17.48
2019-03-23T12:22:55.146Z,17.80
2019-03-23T12:23:58.751Z,17.48
2019-03-23T12:25:01.982Z,16.77
2019-03-23T12:26:05.328Z,16.57
2019-03-23T12:27:08.697Z,16.40
2019-03-23T12:28:12.939Z,18.20
2019-03-23T12:29:16.402Z,18.23
2019-03-23T12:30:19.942Z,17.17
2019-03-23T12:31:25.642Z,16.75
2019-03-23T12:32:29.101Z,18.00
2019-03-23T12:33:32.965Z,18.32
2019-03-23T12:34:36.316Z,17.20
2019-03-23T12:35:41.091Z,17.70
2019-03-23T12:36:46.173Z,17.37
2019-03-23T12:37:49.299Z,16.50
2019-03-23T12:38:52.689Z,17.37
2019-03-23T12:39:56.031Z,17.48
2019-03-23T12:41:09.992Z,17.75
2019-03-23T12:42:04.726Z,20.55
2019-03-23T12:43:07.917Z,18.40
2019-03-23T12:44:11.273Z,17.75
2019-03-23T12:45:14.702Z,17.37
2019-03-23T12:46:17.795Z,17.95
2019-03-23T12:47:21.700Z,16.35
2019-03-23T12:48:25.162Z,17.42
2019-03-23T12:49:28.533Z,16.30
2019-03-23T12:50:31.851Z,16.73
2019-03-23T12:51:35.279Z,18.30
2019-03-23T12:52:38.868Z,15.72
2019-03-23T12:53:42.240Z,16.67
2019-03-23T12:54:47.385Z,15.10
2019-03-23T12:55:50.905Z,15.70
2019-03-23T12:56:54.108Z,14.20
2019-03-23T12:57:57.591Z,14.53
2019-03-23T12:59:00.925Z,16.25
2019-03-23T13:00:05.638Z,15.95
2019-03-23T13:01:08.817Z,15.83
2019-03-23T13:02:13.368Z,15.98
2019-03-23T13:03:16.718Z,15.55
2019-03-23T13:04:19.968Z,15.15
2019-03-23T13:05:24.313Z,15.18
2019-03-23T13:06:27.763Z,14.33
2019-03-23T13:07:31.217Z,15.60
2019-03-23T13:08:34.828Z,16.35
2019-03-23T13:09:38.196Z,14.75
2019-03-23T13:10:41.427Z,16.42
2019-03-23T13:11:45.128Z,15.28
2019-03-23T13:12:49.558Z,15.80
2019-03-23T13:13:52.806Z,14.75
2019-03-23T13:14:56.259Z,16.23
2019-03-23T13:16:00.073Z,16.90
2019-03-23T13:17:03.403Z,14.35
2019-03-23T13:18:06.871Z,14.55
2019-03-23T13:19:10.323Z,16.05
2019-03-23T13:20:13.891Z,16.87
2019-03-23T13:21:17.238Z,14.60
2019-03-23T13:22:20.643Z,15.75
2019-03-23T13:23:24.123Z,16.62
2019-03-23T13:24:27.277Z,14.98
2019-03-23T13:25:30.713Z,15.10
2019-03-23T13:26:34.137Z,14.95
2019-03-23T13:27:37.602Z,15.05
2019-03-23T13:28:40.924Z,14.78
2019-03-23T13:29:44.185Z,14.43
2019-03-23T13:30:47.830Z,15.43
2019-03-23T13:31:50.967Z,14.98
2019-03-23T13:32:54.226Z,14.00
2019-03-23T13:33:57.465Z,13.50
2019-03-23T13:35:01.195Z,13.08
2019-03-23T13:36:04.974Z,15.45
2019-03-23T13:37:08.134Z,13.95
2019-03-23T13:38:11.314Z,15.08
2019-03-23T13:39:14.715Z,13.50
2019-03-23T13:40:18.216Z,14.45
2019-03-23T13:41:21.684Z,14.25
2019-03-23T13:42:24.912Z,14.45
2019-03-23T13:43:28.236Z,14.95
2019-03-23T13:44:31.725Z,14.78
2019-03-23T13:45:42.426Z,14.07
2019-03-23T13:46:40.347Z,13.60
2019-03-23T13:47:43.614Z,13.90
2019-03-23T13:48:46.810Z,14.33
2019-03-23T13:49:49.961Z,12.37
2019-03-23T13:50:53.248Z,14.43
2019-03-23T13:51:56.726Z,14.98